createdAt,value
2023-02-23T00:12:08.048Z,7.90
2023-02-23T00:14:40.371Z,8.10
2023-02-23T00:17:14.524Z,7.90
2023-02-23T00:32:07.048Z,7.90
2023-02-23T00:34:36.630Z,7.90
2023-02-23T00:37:04.082Z,7.80
2023-02-23T00:42:03.470Z,7.80
2023-02-23T00:47:03.712Z,7.70
2023-02-23T00:49:30.652Z,8.00
2023-02-23T00:51:57.609Z,7.80
2023-02-23T00:54:25.266Z,7.60
2023-02-23T00:56:52.650Z,7.90
2023-02-23T00:59:19.825Z,7.90
2023-02-23T01:01:47.075Z,7.80
2023-02-23T01:04:14.665Z,7.70
2023-02-23T01:09:16.073Z,7.90
2023-02-23T01:14:15.013Z,7.70
2023-02-23T01:16:42.008Z,7.70
2023-02-23T01:19:10.819Z,7.90
2023-02-23T01:21:42.192Z,7.80
2023-02-23T01:24:11.816Z,7.80
2023-02-23T01:26:45.029Z,7.90
2023-02-23T01:29:16.400Z,7.80
2023-02-23T01:31:47.371Z,7.80
2023-02-23T01:34:19.139Z,7.60
2023-02-23T01:39:18.374Z,7.50
2023-02-23T01:41:45.827Z,7.80
2023-02-23T01:44:12.747Z,7.80
2023-02-23T01:46:46.152Z,7.90
2023-02-23T01:49:25.634Z,7.70
2023-02-23T01:52:00.519Z,8.00
2023-02-23T01:54:36.288Z,7.80
2023-02-23T01:57:06.522Z,7.60
2023-02-23T01:59:44.669Z,7.80
2023-02-23T02:02:13.311Z,7.80
2023-02-23T02:04:45.653Z,7.50
2023-02-23T02:10:10.233Z,7.70
2023-02-23T02:12:45.731Z,7.80
2023-02-23T02:15:19.947Z,7.80
2023-02-23T02:18:11.878Z,7.90
2023-02-23T02:21:04.619Z,7.80
2023-02-23T02:24:13.156Z,7.70
2023-02-23T02:27:08.012Z,7.90
2023-02-23T02:30:01.803Z,7.80
2023-02-23T02:33:00.979Z,7.80
2023-02-23T02:35:51.603Z,7.80
2023-02-23T02:39:07.074Z,7.80
2023-02-23T02:42:21.569Z,7.90
2023-02-23T02:45:45.863Z,7.80
2023-02-23T02:48:42.038Z,7.70
2023-02-23T02:51:28.588Z,7.70
2023-02-23T02:54:06.731Z,7.70
2023-02-23T02:56:40.369Z,7.50
2023-02-23T02:59:34.246Z,7.60
2023-02-23T03:08:15.080Z,7.40
2023-02-23T03:11:20.416Z,7.80
2023-02-23T03:14:48.318Z,7.60
2023-02-23T03:18:03.005Z,7.70
2023-02-23T03:20:51.404Z,7.70
2023-02-23T03:24:01.270Z,7.70
2023-02-23T03:27:11.807Z,7.70
2023-02-23T03:32:53.546Z,7.70
2023-02-23T03:36:10.747Z,7.70
2023-02-23T03:39:01.661Z,7.70
2023-02-23T03:41:50.088Z,7.60
2023-02-23T03:44:51.211Z,7.70
2023-02-23T03:47:42.116Z,7.60
2023-02-23T03:50:40.024Z,7.60
2023-02-23T03:53:28.937Z,7.70
2023-02-23T03:56:17.774Z,7.70
2023-02-23T03:59:10.607Z,7.60
2023-02-23T04:01:58.304Z,8.00
2023-02-23T04:04:46.390Z,7.60
2023-02-23T04:07:37.476Z,7.60
2023-02-23T04:10:24.846Z,7.70
2023-02-23T04:15:50.969Z,7.70
2023-02-23T04:18:28.099Z,7.60
2023-02-23T04:20:57.512Z,7.60
2023-02-23T04:23:25.481Z,7.60
2023-02-23T04:25:53.715Z,7.60
2023-02-23T04:28:22.668Z,7.60
2023-02-23T04:33:22.004Z,7.60
2023-02-23T04:43:13.227Z,7.60
2023-02-23T04:58:00.206Z,7.70
2023-02-23T05:00:29.321Z,7.60
2023-02-23T05:07:52.978Z,7.70
2023-02-23T05:17:42.742Z,7.60
2023-02-23T05:20:13.550Z,7.50
2023-02-23T05:22:40.630Z,7.70
2023-02-23T05:25:09.504Z,7.20
2023-02-23T05:27:37.129Z,7.70
2023-02-23T05:30:07.828Z,7.60
2023-02-23T05:49:47.106Z,7.50
2023-02-23T05:52:14.043Z,8.40
2023-02-23T06:31:39.544Z,7.60
2023-02-23T06:48:55.937Z,7.70
2023-02-23T06:56:20.433Z,7.60
2023-02-23T06:58:48.031Z,7.70
2023-02-23T07:11:11.159Z,7.90
2023-02-23T07:16:07.203Z,7.70
2023-02-23T07:30:57.371Z,7.60
2023-02-23T07:48:13.679Z,7.90
2023-02-23T07:53:10.077Z,7.80
2023-02-23T07:58:06.683Z,7.80
2023-02-23T08:00:35.038Z,7.90
2023-02-23T08:07:59.153Z,8.00
2023-02-23T08:25:18.040Z,8.00
2023-02-23T08:30:15.775Z,8.00
2023-02-23T08:40:10.307Z,7.80
2023-02-23T08:50:05.692Z,7.80
2023-02-23T09:07:23.525Z,8.20
2023-02-23T09:09:56.395Z,8.10
2023-02-23T09:17:22.975Z,8.60
2023-02-23T09:19:51.281Z,8.50
2023-02-23T09:27:18.558Z,8.70
2023-02-23T09:32:15.676Z,8.60
2023-02-23T09:42:26.538Z,8.40
2023-02-23T09:45:39.918Z,8.40
2023-02-23T09:48:23.045Z,8.60
2023-02-23T09:50:58.311Z,8.80
2023-02-23T09:53:40.998Z,9.00
2023-02-23T09:56:23.675Z,8.90
2023-02-23T10:01:49.078Z,9.10
2023-02-23T10:04:24.213Z,9.10
2023-02-23T10:07:09.425Z,9.00
2023-02-23T10:10:07.385Z,9.10
2023-02-23T10:13:09.436Z,9.00
2023-02-23T10:16:04.361Z,9.20
2023-02-23T10:19:04.444Z,9.20
2023-02-23T10:21:40.008Z,9.50
2023-02-23T10:24:33.797Z,9.60
2023-02-23T10:27:12.572Z,9.50
2023-02-23T10:29:51.912Z,9.40
2023-02-23T10:32:43.071Z,9.50
2023-02-23T10:35:19.334Z,9.50
2023-02-23T10:37:47.682Z,9.70
2023-02-23T10:40:18.548Z,9.90
2023-02-23T10:45:23.001Z,9.50
2023-02-23T10:48:06.234Z,9.60
2023-02-23T10:50:36.706Z,9.70
2023-02-23T10:53:18.343Z,9.50
2023-02-23T10:55:47.083Z,9.10
2023-02-23T10:58:20.569Z,9.10
2023-02-23T11:01:02.968Z,9.60
2023-02-23T11:03:36.553Z,9.60
2023-02-23T11:08:39.544Z,9.90
2023-02-23T11:11:15.928Z,10.30
2023-02-23T11:13:46.761Z,10.50
2023-02-23T11:16:25.435Z,10.50
2023-02-23T11:19:01.114Z,10.60
2023-02-23T11:21:35.477Z,10.50
2023-02-23T11:24:18.112Z,10.30
2023-02-23T11:26:47.779Z,10.10
2023-02-23T11:29:22.759Z,10.30
2023-02-23T11:31:58.440Z,10.70
2023-02-23T11:34:35.393Z,10.20
2023-02-23T11:37:27.083Z,10.80
2023-02-23T11:39:59.741Z,11.00
2023-02-23T11:42:35.612Z,10.80
2023-02-23T11:45:08.138Z,11.10
2023-02-23T11:47:41.443Z,11.20
2023-02-23T11:50:22.221Z,10.90
2023-02-23T11:53:02.028Z,11.00
2023-02-23T11:55:31.671Z,11.00
2023-02-23T11:58:37.615Z,11.10
2023-02-23T12:01:12.181Z,11.20
2023-02-23T12:03:47.830Z,10.80
2023-02-23T12:06:36.350Z,11.10
2023-02-23T12:09:28.159Z,10.30
2023-02-23T12:12:14.192Z,9.90
2023-02-23T12:14:53.945Z,11.50
2023-02-23T12:17:28.357Z,11.10
2023-02-23T12:20:16.540Z,11.30
2023-02-23T12:22:52.438Z,11.10
2023-02-23T12:25:55.998Z,11.10
2023-02-23T12:28:52.975Z,11.00
2023-02-23T12:31:40.439Z,10.70
2023-02-23T12:34:40.091Z,10.90
2023-02-23T12:37:09.927Z,10.90
2023-02-23T12:39:43.728Z,11.20
2023-02-23T12:42:23.914Z,11.00
2023-02-23T12:45:06.026Z,11.20
2023-02-23T12:50:43.440Z,10.60
2023-02-23T12:53:37.728Z,10.20
2023-02-23T12:56:46.782Z,10.30
2023-02-23T13:00:24.021Z,10.50
2023-02-23T13:03:40.207Z,10.30
2023-02-23T13:06:36.843Z,10.20
2023-02-23T13:09:29.843Z,10.80
2023-02-23T13:12:30.181Z,10.80
2023-02-23T13:15:15.655Z,11.00
2023-02-23T13:17:51.781Z,11.50
2023-02-23T13:20:25.348Z,11.50
2023-02-23T13:23:12.754Z,11.40
2023-02-23T13:26:09.886Z,11.40
2023-02-23T13:29:07.809Z,11.30
2023-02-23T13:31:38.666Z,11.70
2023-02-23T13:34:11.905Z,11.50
2023-02-23T13:39:45.152Z,11.80
2023-02-23T13:42:56.688Z,11.70
2023-02-23T13:45:32.384Z,11.70
2023-02-23T13:48:31.668Z,11.50
2023-02-23T13:51:30.482Z,11.30
2023-02-23T13:54:33.150Z,11.50
2023-02-23T13:57:05.726Z,11.30
2023-02-23T13:59:43.541Z,11.40
2023-02-23T14:02:35.860Z,11.40
2023-02-23T14:05:20.915Z,11.40
2023-02-23T14:07:54.973Z,11.60
2023-02-23T14:10:25.783Z,11.70
2023-02-23T14:13:15.528Z,11.40
2023-02-23T14:15:53.608Z,11.50
2023-02-23T14:21:15.980Z,11.50
2023-02-23T14:24:21.503Z,11.60
2023-02-23T14:27:41.598Z,11.70
2023-02-23T14:30:12.124Z,11.70
2023-02-23T14:32:45.634Z,11.70
2023-02-23T14:35:34.427Z,11.80
2023-02-23T14:38:10.257Z,11.70
2023-02-23T14:40:43.394Z,11.40
2023-02-23T14:43:51.380Z,11.80
2023-02-23T14:46:22.034Z,11.60
2023-02-23T14:49:10.247Z,11.50
2023-02-23T14:51:48.529Z,11.40
2023-02-23T14:54:36.166Z,11.80
2023-02-23T14:57:19.139Z,11.80
2023-02-23T15:00:02.738Z,11.70
2023-02-23T15:02:31.245Z,11.00
2023-02-23T15:07:40.297Z,11.50
2023-02-23T15:10:17.708Z,11.50
2023-02-23T15:12:47.081Z,11.50
2023-02-23T15:15:20.473Z,11.20
2023-02-23T15:17:53.315Z,11.10
2023-02-23T15:20:28.644Z,11.30
2023-02-23T15:22:59.184Z,11.10
2023-02-23T15:28:29.594Z,11.30
2023-02-23T15:31:01.128Z,11.30
2023-02-23T15:36:10.102Z,12.70
2023-02-23T15:38:46.011Z,11.40
2023-02-23T15:41:37.219Z,11.40
2023-02-23T15:44:22.752Z,11.50
2023-02-23T15:47:00.317Z,11.30
2023-02-23T15:49:37.911Z,11.40
2023-02-23T15:52:15.578Z,11.40
2023-02-23T15:55:10.111Z,11.40
2023-02-23T15:58:00.068Z,11.40
2023-02-23T16:03:07.958Z,11.50
2023-02-23T16:05:46.517Z,11.50
2023-02-23T16:08:25.263Z,11.40
2023-02-23T16:11:02.237Z,11.30
2023-02-23T16:13:29.237Z,11.30
2023-02-23T16:18:36.029Z,11.30
2023-02-23T16:21:04.815Z,11.30
2023-02-23T16:23:41.138Z,11.30
2023-02-23T16:26:12.875Z,12.00
2023-02-23T16:28:45.915Z,11.20
2023-02-23T16:31:14.538Z,11.30
2023-02-23T16:33:52.926Z,11.20
2023-02-23T16:36:24.117Z,11.00
2023-02-23T16:39:02.932Z,11.20
2023-02-23T16:41:34.476Z,11.10
2023-02-23T16:44:07.374Z,10.90
2023-02-23T16:47:03.164Z,11.10
2023-02-23T16:49:30.585Z,11.00
2023-02-23T16:51:59.466Z,11.10
2023-02-23T16:59:24.149Z,10.90
2023-02-23T17:04:20.744Z,11.00
2023-02-23T17:06:57.637Z,10.80
2023-02-23T17:09:25.363Z,10.80
2023-02-23T17:14:28.257Z,11.00
2023-02-23T17:16:55.362Z,11.00
2023-02-23T17:19:24.657Z,10.90
2023-02-23T17:21:53.019Z,10.90
2023-02-23T17:26:55.448Z,10.90
2023-02-23T17:29:22.621Z,10.80
2023-02-23T17:34:17.795Z,10.80
2023-02-23T17:39:14.314Z,11.10
2023-02-23T17:41:41.471Z,10.50
2023-02-23T17:51:30.680Z,10.60
2023-02-23T17:56:25.501Z,10.70
2023-02-23T18:01:20.368Z,10.60
2023-02-23T18:03:47.963Z,10.40
2023-02-23T18:08:45.245Z,10.50
2023-02-23T18:16:10.480Z,10.60
2023-02-23T18:18:45.043Z,10.70
2023-02-23T18:21:19.775Z,10.60
2023-02-23T18:23:47.784Z,10.50
2023-02-23T18:26:24.652Z,10.30
2023-02-23T18:28:51.902Z,11.70
2023-02-23T18:31:22.713Z,10.60
2023-02-23T18:33:52.713Z,10.90
2023-02-23T18:41:19.137Z,10.40
2023-02-23T18:43:46.648Z,10.40
2023-02-23T18:46:14.433Z,10.40
2023-02-23T18:51:14.382Z,10.50
2023-02-23T18:53:41.815Z,10.50
2023-02-23T18:56:12.852Z,10.90
2023-02-23T19:01:12.874Z,9.90
2023-02-23T19:03:41.501Z,10.50
2023-02-23T19:06:12.033Z,10.50
2023-02-23T19:13:34.382Z,10.40
2023-02-23T19:16:06.966Z,10.60
2023-02-23T19:18:35.597Z,10.40
2023-02-23T19:21:04.102Z,10.40
2023-02-23T19:33:39.904Z,10.50
2023-02-23T19:36:13.172Z,10.30
2023-02-23T19:41:12.767Z,10.30
2023-02-23T19:43:39.667Z,10.40
2023-02-23T19:46:09.874Z,10.30
2023-02-23T19:48:37.885Z,9.10
2023-02-23T19:51:05.766Z,10.10
2023-02-23T19:56:11.618Z,9.90
2023-02-23T20:01:08.874Z,10.20
2023-02-23T20:03:39.448Z,10.00
2023-02-23T20:11:06.599Z,10.10
2023-02-23T20:13:34.729Z,10.00
2023-02-23T20:18:40.140Z,10.10
2023-02-23T20:21:23.308Z,8.50
2023-02-23T20:23:50.993Z,8.90
2023-02-23T20:26:31.948Z,10.00
2023-02-23T20:31:30.579Z,10.10
2023-02-23T20:34:01.905Z,10.80
2023-02-23T20:36:28.914Z,9.90
2023-02-23T20:43:52.695Z,10.00
2023-02-23T20:46:20.244Z,10.00
2023-02-23T20:51:18.969Z,9.90
2023-02-23T20:53:48.126Z,10.00
2023-02-23T20:56:18.563Z,9.30
2023-02-23T20:58:46.350Z,10.00
2023-02-23T21:01:16.821Z,10.00
2023-02-23T21:03:44.255Z,9.90
2023-02-23T21:11:09.353Z,10.00
2023-02-23T21:16:03.947Z,9.60
2023-02-23T21:21:06.929Z,8.60
2023-02-23T21:23:33.833Z,9.70
2023-02-23T21:33:33.579Z,9.70
2023-02-23T21:36:00.467Z,9.80
2023-02-23T21:38:27.358Z,10.20
2023-02-23T21:40:54.245Z,10.10
2023-02-23T21:45:49.926Z,9.80
2023-02-23T21:48:16.864Z,9.60
2023-02-23T21:55:42.616Z,9.70
2023-02-23T21:58:09.847Z,9.70
2023-02-23T22:00:37.032Z,9.60
2023-02-23T22:05:35.059Z,9.60
2023-02-23T22:10:32.049Z,8.80
2023-02-23T22:13:02.949Z,8.30
2023-02-23T22:17:57.264Z,9.70
2023-02-23T22:27:47.882Z,9.70
2023-02-23T22:30:15.618Z,9.60
2023-02-23T22:32:43.509Z,9.60
2023-02-23T22:37:38.978Z,9.60
2023-02-23T22:40:25.150Z,9.50
2023-02-23T22:42:54.170Z,9.50
2023-02-23T22:47:48.895Z,9.60
2023-02-23T22:52:47.032Z,9.50
2023-02-23T23:00:11.745Z,9.50
2023-02-23T23:02:38.976Z,9.50
2023-02-23T23:05:07.034Z,9.60
2023-02-23T23:07:34.048Z,9.50
2023-02-23T23:12:34.353Z,9.50
2023-02-23T23:17:30.821Z,9.40
2023-02-23T23:20:02.919Z,9.20
2023-02-23T23:22:31.540Z,9.60
2023-02-23T23:24:58.483Z,10.50
2023-02-23T23:27:25.616Z,9.60
2023-02-23T23:29:52.513Z,9.40
2023-02-23T23:32:21.064Z,9.50
2023-02-23T23:34:49.325Z,9.30
2023-02-23T23:37:18.466Z,9.60
2023-02-23T23:39:45.996Z,9.50
2023-02-23T23:42:13.310Z,11.40
2023-02-23T23:44:40.305Z,9.30
2023-02-23T23:47:07.918Z,9.40
2023-02-23T23:49:38.006Z,9.40
2023-02-23T23:52:06.211Z,9.40
2023-02-23T23:54:39.421Z,9.90
2023-02-23T23:59:35.787Z,9.60
